Kenmore, NY

8:16 AM EDT on August 31, 2015 (GMT -0400)
Town of Tonawanda | | Change Station
CLOSE
Current Station
Personal Weather Station
Location: Buffalo, NY
Elevation: 610 ft
Nearby Weather Stations

Elev 610 ft 42.99 °N, 78.88 °W | Updated 5 minutes ago

Partly Cloudy
Partly Cloudy
71.2 °F
Feels Like 71.2 °F
N
0.0
Wind Variable Wind from West

Today
High -- | Low -- °F
--% Chance of Precip.
Yesterday
High -- | Low -- °F
Precip. -- in
6:38 AM 7:52 PM
Waning Gibbous, 95% visible
Pressure 30.04 in
Visibility 6.0 miles
Clouds Mostly Cloudy 5000 ft
Mostly Cloudy 25000 ft
Dew Point 69 °F
Humidity 92%
Rainfall 0.00 in
Snow Depth Not available.
UV 0 out of 12
Pollen 10.80 out of 12
Air Quality Not available.
Flu Activity Not available.
METAR KBUF 311154Z 22004KT 6SM BR BKN050 BKN250 21/19 A3004 RMK AO2 SLP170 T02060189 10206 20183 53007
Pressure 30.04 in
Visibility 6.0 miles
Clouds Mostly Cloudy 5000 ft
Mostly Cloudy 25000 ft
Dew Point 69 °F
Humidity 92%
Rainfall 0.00 in
Snow Depth Not available.
UV 0 out of 12
Pollen 10.80 out of 12
Air Quality Not available.
Flu Activity Not available.
METAR KBUF 311154Z 22004KT 6SM BR BKN050 BKN250 21/19 A3004 RMK AO2 SLP170 T02060189 10206 20183 53007

10-Day Weather Forecast

×

Almanac

Astronomy

Aug. 31, 2015 Rise Set
Actual Time
Civil Twilight
Nautical Twilight
Astronomical Twilight
Moon
Length of Visible Light
Length of Day
Tomorrow will be .
, % of the Moon is Illuminated

Today's Extremes

State Highs State Lows

Community

WunderPhotos

Upload Photos

1,851,222 photos uploaded!

WunderBlogs® & News

Nearby

Air Quality

  Air Quality AQ Index Pollutant
Not available.

Snow Depth

Station Depth Elevation

Earthquake Activity

City Distance Mag. Time & Date
Minimum magnitude displayed is 2.5.

Coastal Water Temperatures

Place Temperature

Stations

Nearby Weather Stations

Station Location Temp. Windchill Dew Point Humidity Wind Precip. Elev Updated Type